Time;durP1;ratioP1;P1;durP2;ratioP2;P2;SDS_P1;SDS_P2;PMS_P1;PMS_P2;Temp;Humidity;BMP_temperature;BMP_pressure;BME280_temperature;BME280_humidity;BME280_pressure;Samples;Min_cycle;Max_cycle;Signal;HPM_P1;HPM_P2
2020/01/27 00:02:08;;;;;;;26.4;17;;;;;;;4.53;97.36914;960.4724;;;;
2020/01/27 00:04:43;;;;;;;27.3;16.6;;;;;;;4.67;96.74414;960.4777;;;;
2020/01/27 00:07:02;;;;;;;25.4;16.2;;;;;;;4.69;97.49902;960.4744;;;;
2020/01/27 00:09:22;;;;;;;23.4;15.9;;;;;;;4.78;97.6543;960.3095;;;;
2020/01/27 00:11:47;;;;;;;24.5;15.4;;;;;;;4.86;97.79688;960.2717;;;;
2020/01/27 00:14:12;;;;;;;23;14.1;;;;;;;4.98;97.76953;960.2072;;;;
2020/01/27 00:16:38;;;;;;;23.1;14.7;;;;;;;4.99;98.24609;960.2058;;;;
2020/01/27 00:19:03;;;;;;;23.5;14.5;;;;;;;4.91;99.39746;960.2326;;;;
2020/01/27 00:21:29;;;;;;;22.6;13.9;;;;;;;5.07;98.37891;960.3434;;;;
2020/01/27 00:23:54;;;;;;;27.1;15.7;;;;;;;4.78;100;960.3805;;;;
2020/01/27 00:26:19;;;;;;;25.5;16.6;;;;;;;4.7;100;960.3183;;;;
2020/01/27 00:28:44;;;;;;;27.5;17.9;;;;;;;4.63;100;960.3014;;;;
2020/01/27 00:31:09;;;;;;;29.9;17.9;;;;;;;4.6;100;960.2937;;;;
2020/01/27 00:33:34;;;;;;;31.4;18.4;;;;;;;4.55;100;960.2642;;;;
2020/01/27 00:35:59;;;;;;;29.3;18.2;;;;;;;4.54;100;960.3154;;;;
2020/01/27 00:38:24;;;;;;;25.7;17.5;;;;;;;4.58;100;960.3228;;;;
2020/01/27 00:40:49;;;;;;;28.1;18.7;;;;;;;4.53;100;960.29;;;;
2020/01/27 00:43:14;;;;;;;26.3;18.1;;;;;;;4.52;100;960.2844;;;;
2020/01/27 00:50:49;;;;;;;26.7;17;;;;;;;4.58;100;960.3292;;;;
2020/01/27 00:52:57;;;;;;;26.6;17.6;;;;;;;4.54;100;960.4355;;;;
2020/01/27 00:55:20;;;;;;;27.2;18;;;;;;;4.57;100;960.4233;;;;
2020/01/27 00:57:45;;;;;;;25.7;17.6;;;;;;;4.62;100;960.4584;;;;
2020/01/27 01:00:10;;;;;;;26.2;17;;;;;;;4.56;100;960.4568;;;;
2020/01/27 01:02:35;;;;;;;25.5;17.2;;;;;;;4.52;100;960.3969;;;;
2020/01/27 01:05:00;;;;;;;29.3;17.8;;;;;;;4.53;100;960.4092;;;;
2020/01/27 01:07:25;;;;;;;28.6;18.8;;;;;;;4.42;100;960.4319;;;;
2020/01/27 01:09:50;;;;;;;24.9;17.6;;;;;;;4.53;100;960.423;;;;
2020/01/27 01:12:15;;;;;;;30;18.8;;;;;;;4.48;100;960.4182;;;;
2020/01/27 01:14:40;;;;;;;33.3;22.3;;;;;;;4.48;100;960.4361;;;;
2020/01/27 01:17:06;;;;;;;31;19.4;;;;;;;4.57;100;960.407;;;;
2020/01/27 01:19:31;;;;;;;31.5;19;;;;;;;4.63;100;960.4177;;;;
2020/01/27 01:21:56;;;;;;;28.2;17.3;;;;;;;4.61;100;960.4031;;;;
2020/01/27 01:24:21;;;;;;;26.6;17.7;;;;;;;4.58;100;960.4422;;;;
2020/01/27 01:27:18;;;;;;;29.1;17.6;;;;;;;4.67;100;960.3856;;;;
2020/01/27 01:29:43;;;;;;;24.9;15.3;;;;;;;4.71;100;960.3524;;;;
2020/01/27 01:32:08;;;;;;;25.4;15.3;;;;;;;4.75;100;960.3687;;;;
2020/01/27 01:34:33;;;;;;;22.7;15.2;;;;;;;4.82;100;960.3281;;;;
2020/01/27 01:36:58;;;;;;;21.8;14;;;;;;;4.83;100;960.2996;;;;
2020/01/27 01:39:23;;;;;;;18.4;12.7;;;;;;;4.9;100;960.2709;;;;
2020/01/27 01:42:36;;;;;;;17.5;12.2;;;;;;;4.97;100;960.2255;;;;
2020/01/27 01:45:02;;;;;;;18;11.4;;;;;;;5;100;960.2614;;;;
2020/01/27 01:52:19;;;;;;;14.3;10.5;;;;;;;5.1;100;960.2864;;;;
2020/01/27 01:54:41;;;;;;;17.2;11.6;;;;;;;4.92;100;960.2806;;;;
2020/01/27 01:57:08;;;;;;;20.1;12;;;;;;;4.97;100;960.2609;;;;
2020/01/27 01:59:33;;;;;;;17.8;12.3;;;;;;;5.03;100;960.2491;;;;
2020/01/27 02:01:59;;;;;;;20.3;11.9;;;;;;;5.05;100;960.2899;;;;
2020/01/27 02:04:24;;;;;;;25.1;14.5;;;;;;;4.87;100;960.2606;;;;
2020/01/27 02:06:49;;;;;;;22.9;15.4;;;;;;;4.81;100;960.2704;;;;
2020/01/27 02:09:14;;;;;;;22;15.7;;;;;;;4.76;100;960.2481;;;;
2020/01/27 02:11:39;;;;;;;24.4;16.5;;;;;;;4.8;100;960.1588;;;;
2020/01/27 02:14:05;;;;;;;23.7;16.7;;;;;;;4.85;100;960.1552;;;;
2020/01/27 02:16:29;;;;;;;23.4;15.1;;;;;;;4.9;100;960.1384;;;;
2020/01/27 02:18:54;;;;;;;25.8;15.7;;;;;;;4.97;100;960.1359;;;;
2020/01/27 02:21:19;;;;;;;24.7;16.2;;;;;;;4.89;100;960.2092;;;;
2020/01/27 02:23:44;;;;;;;24.1;16.4;;;;;;;4.88;100;960.1919;;;;
2020/01/27 02:26:09;;;;;;;23.4;16.2;;;;;;;4.91;100;960.2279;;;;
2020/01/27 02:28:35;;;;;;;21.4;15.8;;;;;;;4.96;100;960.1862;;;;
2020/01/27 02:31:00;;;;;;;24.7;16.2;;;;;;;5.07;100;960.0955;;;;
2020/01/27 02:33:25;;;;;;;22.8;16.2;;;;;;;5.04;100;960.0869;;;;
2020/01/27 02:35:50;;;;;;;24.9;18.2;;;;;;;4.93;100;960.0655;;;;
2020/01/27 02:38:15;;;;;;;24;18;;;;;;;4.93;100;960.0887;;;;
2020/01/27 02:40:40;;;;;;;26.6;18.9;;;;;;;4.97;100;960.0221;;;;
2020/01/27 02:43:05;;;;;;;25.8;18.4;;;;;;;4.96;100;960.0187;;;;
2020/01/27 02:45:31;;;;;;;26;18.7;;;;;;;4.91;100;959.9856;;;;
2020/01/27 02:47:56;;;;;;;25.3;18.8;;;;;;;4.87;100;960.0071;;;;
2020/01/27 02:50:21;;;;;;;28.6;19.8;;;;;;;4.85;100;959.9711;;;;
2020/01/27 02:52:46;;;;;;;27.3;19;;;;;;;4.86;100;959.9117;;;;
2020/01/27 02:55:12;;;;;;;27.1;19.5;;;;;;;4.78;100;959.9495;;;;
2020/01/27 02:57:37;;;;;;;29.1;19.4;;;;;;;4.81;100;959.8722;;;;
2020/01/27 03:00:02;;;;;;;26.1;19.2;;;;;;;4.7;100;959.939;;;;
2020/01/27 03:02:27;;;;;;;27.7;19.6;;;;;;;4.67;100;959.882;;;;
2020/01/27 03:04:52;;;;;;;32.2;20.5;;;;;;;4.52;100;959.8438;;;;
2020/01/27 03:07:17;;;;;;;32.2;21.1;;;;;;;4.55;100;959.8617;;;;
2020/01/27 03:09:42;;;;;;;30.3;20.7;;;;;;;4.55;100;959.8536;;;;
2020/01/27 03:12:08;;;;;;;30.7;19.9;;;;;;;4.63;100;959.8552;;;;
2020/01/27 03:14:32;;;;;;;29.8;19.4;;;;;;;4.65;100;959.9012;;;;
2020/01/27 03:16:58;;;;;;;29.8;19.4;;;;;;;4.7;100;959.859;;;;
2020/01/27 03:19:23;;;;;;;30;19;;;;;;;4.65;100;959.7932;;;;
2020/01/27 03:21:49;;;;;;;29.9;18.9;;;;;;;4.64;100;959.7881;;;;
2020/01/27 03:24:14;;;;;;;33.4;19.1;;;;;;;4.68;100;959.8323;;;;
2020/01/27 03:26:39;;;;;;;29.7;18.6;;;;;;;4.75;100;959.8182;;;;
2020/01/27 03:29:04;;;;;;;29.6;17.7;;;;;;;4.76;100;959.8156;;;;
2020/01/27 03:31:30;;;;;;;28.8;17.8;;;;;;;4.75;100;959.8182;;;;
2020/01/27 03:33:55;;;;;;;30;18.8;;;;;;;4.73;100;959.83;;;;
2020/01/27 03:36:20;;;;;;;29.1;18.7;;;;;;;4.7;100;959.8203;;;;
2020/01/27 03:38:46;;;;;;;29.3;18.2;;;;;;;4.71;100;959.8069;;;;
2020/01/27 03:41:11;;;;;;;32.8;18.8;;;;;;;4.73;100;959.8586;;;;
2020/01/27 03:43:36;;;;;;;32.1;19.3;;;;;;;4.67;100;959.8724;;;;
2020/01/27 03:46:01;;;;;;;31.5;19.3;;;;;;;4.64;100;959.8478;;;;
2020/01/27 03:53:16;;;;;;;29.1;18.4;;;;;;;4.61;100;959.8709;;;;
2020/01/27 03:55:42;;;;;;;29.6;18.3;;;;;;;4.52;100;959.8491;;;;
2020/01/27 03:58:07;;;;;;;32.7;19.2;;;;;;;4.46;100;959.8516;;;;
2020/01/27 04:02:27;;;;;;;29.3;18.7;;;;;;;4.43;100;959.8688;;;;
2020/01/27 04:04:52;;;;;;;29.8;18.8;;;;;;;4.46;100;959.899;;;;
2020/01/27 04:07:17;;;;;;;31.7;18.9;;;;;;;4.38;100;959.8825;;;;
2020/01/27 04:09:43;;;;;;;30.1;18.7;;;;;;;4.41;100;959.846;;;;
2020/01/27 04:12:08;;;;;;;28.6;19.2;;;;;;;4.37;100;959.8156;;;;
2020/01/27 04:14:33;;;;;;;31.7;20;;;;;;;4.38;100;959.8028;;;;
2020/01/27 04:19:26;;;;;;;29.5;19.8;;;;;;;4.45;100;959.7015;;;;
2020/01/27 04:21:48;;;;;;;31.3;20.3;;;;;;;4.43;100;959.7762;;;;
2020/01/27 17:35:58;;;;;;;13.7;3.5;;;;;;;8.32;72.06152;952.9479;;;;
2020/01/27 17:38:23;;;;;;;12.5;4.1;;;;;;;8.37;72.59766;952.9395;;;;
2020/01/27 17:40:48;;;;;;;10.2;4.1;;;;;;;8.42;70.8418;952.8945;;;;
2020/01/27 17:43:13;;;;;;;13.2;4.4;;;;;;;8.36;70.86523;952.8113;;;;
2020/01/27 17:45:38;;;;;;;14.6;4.2;;;;;;;8.31;72.54102;952.8314;;;;
2020/01/27 17:48:22;;;;;;;18.3;4.6;;;;;;;8.29;71.4043;952.7493;;;;
2020/01/27 17:50:47;;;;;;;11.9;4.3;;;;;;;8.41;71.24023;952.7775;;;;
2020/01/27 17:53:12;;;;;;;13.3;4.6;;;;;;;8.36;72.77734;952.8113;;;;
2020/01/27 17:55:37;;;;;;;12.8;5.1;;;;;;;8.26;73.07129;952.7756;;;;
2020/01/27 17:58:02;;;;;;;11.1;5.2;;;;;;;8.31;73.42285;952.6236;;;;
2020/01/27 18:00:29;;;;;;;11.4;5.6;;;;;;;8.28;73.01758;952.6442;;;;
2020/01/27 18:02:52;;;;;;;11.5;5.7;;;;;;;8.24;73.23828;952.5212;;;;
2020/01/27 18:05:17;;;;;;;17.2;5.8;;;;;;;8.21;73.74902;952.5223;;;;
2020/01/27 18:07:43;;;;;;;14;6.1;;;;;;;8.1;74.39258;952.5219;;;;
2020/01/27 18:10:08;;;;;;;13.7;6.3;;;;;;;8.01;74.29688;952.4888;;;;
2020/01/27 18:12:33;;;;;;;14.8;6.1;;;;;;;7.96;74.96289;952.4434;;;;
2020/01/27 18:14:58;;;;;;;15;5.8;;;;;;;7.95;74.62012;952.4106;;;;
2020/01/27 18:17:23;;;;;;;16.6;6;;;;;;;7.92;74.14453;952.3972;;;;
2020/01/27 18:19:48;;;;;;;16.1;5.7;;;;;;;7.84;75.48145;952.3448;;;;
2020/01/27 18:22:13;;;;;;;13.3;5.6;;;;;;;7.91;74.74805;952.3914;;;;
2020/01/27 18:24:38;;;;;;;13.2;6;;;;;;;7.83;75.5127;952.2999;;;;
2020/01/27 18:27:04;;;;;;;12.7;5.9;;;;;;;7.86;74.10059;952.3183;;;;
2020/01/27 18:29:29;;;;;;;12.2;6;;;;;;;7.79;76.26172;952.313;;;;
2020/01/27 18:31:54;;;;;;;16.3;5.9;;;;;;;7.83;75.33008;952.2528;;;;
2020/01/27 18:34:19;;;;;;;12.4;5.3;;;;;;;7.86;73.94043;952.2145;;;;
2020/01/27 18:36:44;;;;;;;17.5;6;;;;;;;7.77;74.48535;952.2283;;;;
2020/01/27 18:39:09;;;;;;;15;5.9;;;;;;;7.77;73.9707;952.2413;;;;
2020/01/27 18:41:34;;;;;;;14.4;5.5;;;;;;;7.78;74.49707;952.1208;;;;
2020/01/27 18:43:59;;;;;;;15.6;5.5;;;;;;;7.71;74.49805;952.1567;;;;
2020/01/27 18:46:24;;;;;;;15;6.4;;;;;;;7.64;74.2334;952.1127;;;;
2020/01/27 18:48:50;;;;;;;13.4;5.9;;;;;;;7.64;74.61133;952.1337;;;;
2020/01/27 18:51:15;;;;;;;12.4;5.7;;;;;;;7.63;75.27051;952.0481;;;;
2020/01/27 18:53:40;;;;;;;11.6;5.4;;;;;;;7.6;75.84961;952.0292;;;;
2020/01/27 18:56:05;;;;;;;14.1;5.5;;;;;;;7.61;75.39551;952.0179;;;;
2020/01/27 18:58:30;;;;;;;11.1;5.4;;;;;;;7.67;73.58691;952.0076;;;;
2020/01/27 19:00:55;;;;;;;11.8;5.5;;;;;;;7.73;72.83203;951.9788;;;;
2020/01/27 19:03:20;;;;;;;9.7;5;;;;;;;7.73;73.49316;951.9114;;;;
2020/01/27 19:05:45;;;;;;;13.2;5;;;;;;;7.77;72.85059;951.8836;;;;
2020/01/27 19:08:11;;;;;;;13;5;;;;;;;7.69;74.07129;951.8614;;;;
2020/01/27 19:10:36;;;;;;;13.1;5.1;;;;;;;7.7;74.56348;951.8979;;;;
2020/01/27 19:13:01;;;;;;;13;5.3;;;;;;;7.63;74.92773;951.9135;;;;
2020/01/27 19:15:26;;;;;;;10.2;5.3;;;;;;;7.63;74.03906;951.9033;;;;
2020/01/27 19:17:52;;;;;;;15.1;6.7;;;;;;;7.68;73.4873;951.9697;;;;
2020/01/27 19:20:26;;;;;;;12.7;6.1;;;;;;;7.61;73.74805;951.9425;;;;
2020/01/27 19:22:51;;;;;;;14.1;5.8;;;;;;;7.65;74.40723;951.9431;;;;
2020/01/27 19:25:16;;;;;;;11.8;5.2;;;;;;;7.65;73.50391;951.8937;;;;
2020/01/27 19:27:41;;;;;;;11.5;5.6;;;;;;;7.63;73.88965;951.832;;;;
2020/01/27 19:30:06;;;;;;;14.4;5.5;;;;;;;7.56;73.85449;951.8248;;;;
2020/01/27 19:32:32;;;;;;;11.9;5.5;;;;;;;7.59;73.75781;951.8059;;;;
2020/01/27 19:34:57;;;;;;;10;5.1;;;;;;;7.64;72.65625;951.7502;;;;
2020/01/27 19:37:22;;;;;;;12.6;5.5;;;;;;;7.56;73.31738;951.6286;;;;
2020/01/27 19:39:47;;;;;;;11.5;5.1;;;;;;;7.58;72.65723;951.5391;;;;
2020/01/27 19:42:12;;;;;;;13.1;5.4;;;;;;;7.53;72.375;951.5576;;;;
2020/01/27 19:44:37;;;;;;;11.2;5.3;;;;;;;7.53;72.6377;951.4677;;;;
2020/01/27 19:47:02;;;;;;;11.6;5.2;;;;;;;7.57;72.2666;951.4483;;;;
2020/01/27 19:49:27;;;;;;;13.1;5.4;;;;;;;7.49;73.72754;951.343;;;;
2020/01/27 19:51:52;;;;;;;12.6;5.3;;;;;;;7.54;72.7998;951.301;;;;
2020/01/27 19:54:18;;;;;;;9.7;5.4;;;;;;;7.58;72.96582;951.2367;;;;
2020/01/27 19:56:43;;;;;;;12.4;5.6;;;;;;;7.53;73.1543;951.1742;;;;
2020/01/27 19:59:08;;;;;;;13.5;5.9;;;;;;;7.58;72.57715;951.1337;;;;
2020/01/27 20:01:33;;;;;;;13.7;6.6;;;;;;;7.54;72.54785;951.0505;;;;
2020/01/27 20:03:58;;;;;;;13.6;6.8;;;;;;;7.49;73.01953;951.0204;;;;
2020/01/27 20:06:23;;;;;;;14.5;6.2;;;;;;;7.46;73.01465;950.9891;;;;
2020/01/27 20:08:48;;;;;;;15.7;6;;;;;;;7.42;73.00684;950.8345;;;;
2020/01/27 20:11:14;;;;;;;11;5.4;;;;;;;7.48;72.33301;950.8785;;;;
2020/01/27 20:13:39;;;;;;;12.7;5.4;;;;;;;7.47;73.30176;950.8481;;;;
2020/01/27 20:16:04;;;;;;;11;5.3;;;;;;;7.42;72.50586;950.8175;;;;
2020/01/27 20:18:30;;;;;;;11.1;5.5;;;;;;;7.46;73.4834;950.8318;;;;
2020/01/27 20:20:55;;;;;;;14.1;5.5;;;;;;;7.41;72.95996;950.7572;;;;
2020/01/27 20:23:20;;;;;;;11.6;5.8;;;;;;;7.43;73.71875;950.7438;;;;
2020/01/27 20:25:45;;;;;;;11.8;5.6;;;;;;;7.4;72.47949;950.6509;;;;
2020/01/27 20:30:58;;;;;;;9.9;5.6;;;;;;;7.51;72.09766;950.6617;;;;
2020/01/27 20:33:00;;;;;;;8.3;5.4;;;;;;;7.43;72.83887;950.6133;;;;
2020/01/27 20:35:26;;;;;;;8.5;5.4;;;;;;;7.5;72.26758;950.5577;;;;
2020/01/27 20:37:51;;;;;;;14.5;5.7;;;;;;;7.41;72.63965;950.497;;;;
2020/01/27 20:40:16;;;;;;;10;5.4;;;;;;;7.38;73.06934;950.5508;;;;
2020/01/27 20:42:41;;;;;;;13.7;5.8;;;;;;;7.33;73.44824;950.5203;;;;
2020/01/27 20:45:06;;;;;;;11.9;5.5;;;;;;;7.23;73.29492;950.4625;;;;
2020/01/27 20:47:31;;;;;;;13.2;5.6;;;;;;;7.34;72.82324;950.5496;;;;
2020/01/27 20:49:59;;;;;;;14.2;5.7;;;;;;;7.32;72.56738;950.5474;;;;
2020/01/27 20:52:24;;;;;;;13.6;5.5;;;;;;;7.32;72.83203;950.5037;;;;
2020/01/27 20:54:49;;;;;;;12.6;5.6;;;;;;;7.25;72.52148;950.509;;;;
2020/01/27 20:57:16;;;;;;;12.1;5.9;;;;;;;7.35;72.31055;950.4782;;;;
2020/01/27 20:59:42;;;;;;;11.9;5.4;;;;;;;7.26;72.44434;950.5189;;;;
2020/01/27 21:02:07;;;;;;;11.9;5.2;;;;;;;7.34;73.3584;950.5438;;;;
2020/01/27 21:04:32;;;;;;;12.8;5.3;;;;;;;7.31;73.08008;950.5028;;;;
2020/01/27 21:06:57;;;;;;;12.6;5.6;;;;;;;7.31;73.44531;950.4802;;;;
2020/01/27 21:09:23;;;;;;;14.1;5.7;;;;;;;7.3;74.00391;950.4428;;;;
2020/01/27 21:11:49;;;;;;;9.5;5.2;;;;;;;7.36;74.43555;950.3738;;;;
2020/01/27 21:14:14;;;;;;;12;5.9;;;;;;;7.25;72.2832;950.3933;;;;
2020/01/27 21:16:39;;;;;;;12;5.8;;;;;;;7.29;73.8418;950.3354;;;;
2020/01/27 21:19:04;;;;;;;14.4;5.9;;;;;;;7.27;72.62695;950.3779;;;;
2020/01/27 21:21:30;;;;;;;12.5;5.9;;;;;;;7.23;72.72363;950.4665;;;;
2020/01/27 21:23:55;;;;;;;10.1;5.4;;;;;;;7.26;73.63184;950.3455;;;;
2020/01/27 21:26:20;;;;;;;14.2;6.3;;;;;;;7.27;74.08887;950.3731;;;;
2020/01/27 21:28:45;;;;;;;13.7;6.2;;;;;;;7.25;72.5459;950.3292;;;;
2020/01/27 21:31:10;;;;;;;11.4;6.1;;;;;;;7.29;71.52344;950.3784;;;;
2020/01/27 21:33:35;;;;;;;10.2;6;;;;;;;7.21;73.44043;950.3405;;;;
2020/01/27 21:36:00;;;;;;;14.9;6.4;;;;;;;7.29;72.71191;950.3541;;;;
2020/01/27 21:38:25;;;;;;;14.8;6.6;;;;;;;7.23;72.4043;950.3287;;;;
2020/01/27 21:40:50;;;;;;;11.3;5.5;;;;;;;7.18;72.37207;950.293;;;;
2020/01/27 21:43:15;;;;;;;14.1;5.8;;;;;;;7.13;71.92871;950.2957;;;;
2020/01/27 21:45:41;;;;;;;12.8;5.1;;;;;;;7.18;71.96289;950.2755;;;;
2020/01/27 21:48:06;;;;;;;9.8;5.4;;;;;;;7.17;71.68555;950.2573;;;;
2020/01/27 21:50:31;;;;;;;12.4;5.2;;;;;;;7.13;72.52441;950.2819;;;;
2020/01/27 21:52:56;;;;;;;13;5.4;;;;;;;7.15;72.73438;950.245;;;;
2020/01/27 21:55:21;;;;;;;11.6;5.5;;;;;;;7.17;72.48438;950.2621;;;;
2020/01/27 21:57:46;;;;;;;11.2;5.1;;;;;;;7.15;72.23047;950.2475;;;;
2020/01/27 22:00:11;;;;;;;10.3;5.2;;;;;;;7.04;72.87402;950.2073;;;;
2020/01/27 22:02:36;;;;;;;9.5;4.5;;;;;;;7.23;71.93555;950.1805;;;;
2020/01/27 22:05:01;;;;;;;11.5;4.7;;;;;;;7.21;71.68164;950.1383;;;;
2020/01/27 22:07:27;;;;;;;9.9;4.4;;;;;;;7.32;71.54102;950.1277;;;;
2020/01/27 22:09:52;;;;;;;12.4;4.6;;;;;;;7.29;72.55176;950.0503;;;;
2020/01/27 22:12:17;;;;;;;10.4;4.5;;;;;;;7.4;71.54297;949.9127;;;;
2020/01/27 22:14:42;;;;;;;13.4;4.2;;;;;;;7.34;71.54395;950.0486;;;;
2020/01/27 22:17:07;;;;;;;16.3;4.8;;;;;;;7.29;71.86621;949.9911;;;;
2020/01/27 22:19:32;;;;;;;11.9;4.4;;;;;;;7.24;72.05176;950.0176;;;;
2020/01/27 22:21:57;;;;;;;11.3;4.6;;;;;;;7.36;71.79785;949.9689;;;;
2020/01/27 22:24:22;;;;;;;10;4.3;;;;;;;7.35;72.14941;949.7626;;;;
2020/01/27 22:28:21;;;;;;;8.4;4;;;;;;;7.42;72.3457;949.6675;;;;
2020/01/27 22:30:47;;;;;;;10.1;4;;;;;;;7.36;72.59766;949.8084;;;;
2020/01/27 22:33:12;;;;;;;8.8;4.5;;;;;;;7.25;72.95703;949.9395;;;;
2020/01/27 22:35:37;;;;;;;11.4;4.6;;;;;;;7.26;73.34473;949.9501;;;;
2020/01/27 22:38:02;;;;;;;12;4.4;;;;;;;7.23;73.36328;949.9537;;;;
2020/01/27 22:40:27;;;;;;;12.7;4.7;;;;;;;7.23;73.375;949.9375;;;;
2020/01/27 22:42:52;;;;;;;12;4.7;;;;;;;7.19;73.15137;949.9353;;;;
2020/01/27 22:45:17;;;;;;;13;4.8;;;;;;;7.15;73.69238;949.9161;;;;
2020/01/27 22:47:42;;;;;;;11.2;4.1;;;;;;;7.25;74.41699;949.9338;;;;
2020/01/27 22:50:07;;;;;;;9.3;4.1;;;;;;;7.32;74.48828;949.8692;;;;
2020/01/27 22:54:58;;;;;;;11.7;4.6;;;;;;;7.29;73.97949;949.8323;;;;
2020/01/27 22:57:23;;;;;;;11.7;4.6;;;;;;;7.28;72.77832;949.8574;;;;
2020/01/27 22:59:48;;;;;;;9.2;4.5;;;;;;;7.3;72.98828;949.8035;;;;
2020/01/27 23:02:13;;;;;;;12.2;5.2;;;;;;;7.08;74.37598;949.7551;;;;
2020/01/27 23:04:38;;;;;;;11.9;5.4;;;;;;;7.02;76.36426;949.6685;;;;
2020/01/27 23:07:04;;;;;;;11.1;5.5;;;;;;;6.99;77.88867;949.6258;;;;
2020/01/27 23:10:18;;;;;;;11.3;5.7;;;;;;;7.03;79.25391;949.587;;;;
2020/01/27 23:12:43;;;;;;;12.4;5.1;;;;;;;6.93;76.77246;949.5511;;;;
2020/01/27 23:15:08;;;;;;;11.7;5.3;;;;;;;6.81;78.9043;949.4819;;;;
2020/01/27 23:17:33;;;;;;;12.1;5.1;;;;;;;6.83;79.5127;949.5073;;;;
2020/01/27 23:19:58;;;;;;;10.8;4.7;;;;;;;7.04;79.91797;949.4939;;;;
2020/01/27 23:22:23;;;;;;;10.3;4.4;;;;;;;6.83;79.46875;949.4839;;;;
2020/01/27 23:24:48;;;;;;;13.9;4.7;;;;;;;6.81;80.10254;949.392;;;;
2020/01/27 23:27:13;;;;;;;8.1;4.1;;;;;;;6.73;80.02051;949.3513;;;;
2020/01/27 23:29:38;;;;;;;10.6;4.4;;;;;;;6.85;78.69629;949.2792;;;;
2020/01/27 23:32:03;;;;;;;10.7;4.3;;;;;;;6.71;78.57813;949.1752;;;;
2020/01/27 23:34:28;;;;;;;11.3;4.3;;;;;;;6.63;79.27051;949.1356;;;;
2020/01/27 23:36:53;;;;;;;13.4;4.4;;;;;;;6.62;80.69434;949.1064;;;;
2020/01/27 23:39:18;;;;;;;9.5;4.1;;;;;;;6.63;80.85547;949.019;;;;
2020/01/27 23:41:44;;;;;;;13.9;4.3;;;;;;;6.62;80.05566;949.0295;;;;
2020/01/27 23:44:09;;;;;;;9.9;4.3;;;;;;;6.7;81.53223;949.0237;;;;
2020/01/27 23:46:34;;;;;;;11.3;4;;;;;;;6.69;81.78027;948.8833;;;;
2020/01/27 23:48:59;;;;;;;9.9;4.1;;;;;;;6.68;83.78613;948.8817;;;;
2020/01/27 23:51:24;;;;;;;12;4.1;;;;;;;6.5;82.78125;948.9523;;;;
2020/01/27 23:53:49;;;;;;;10.5;4.5;;;;;;;6.47;83.1416;948.7608;;;;
2020/01/27 23:56:14;;;;;;;11.2;4.6;;;;;;;6.48;85.4209;948.7374;;;;
2020/01/27 23:58:39;;;;;;;11.4;4.9;;;;;;;6.45;86.07715;948.715;;;;
